createdAt,value
2019-03-03T00:01:27.769Z,15.87
2019-03-03T00:03:31.664Z,17.33
2019-03-03T00:05:35.537Z,14.87
2019-03-03T00:07:39.456Z,15.27
2019-03-03T00:09:43.318Z,16.43
2019-03-03T00:11:47.256Z,15.77
2019-03-03T00:13:51.102Z,17.80
2019-03-03T00:15:54.988Z,16.10
2019-03-03T00:17:59.201Z,19.63
2019-03-03T00:20:03.357Z,19.00
2019-03-03T00:22:07.230Z,17.00
2019-03-03T00:24:11.107Z,11.73
2019-03-03T00:26:14.970Z,18.60
2019-03-03T00:28:19.036Z,15.90
2019-03-03T00:30:22.930Z,20.57
2019-03-03T00:32:26.772Z,14.37
2019-03-03T00:34:30.693Z,16.77
2019-03-03T00:36:52.406Z,15.83
2019-03-03T00:39:13.132Z,13.23
2019-03-03T00:41:34.968Z,13.80
2019-03-03T00:43:40.410Z,14.27
2019-03-03T00:45:58.346Z,13.13
2019-03-03T00:48:21.550Z,17.27
2019-03-03T00:50:27.017Z,17.13
2019-03-03T00:52:32.498Z,22.30
2019-03-03T00:54:43.550Z,16.07
2019-03-03T00:56:49.010Z,17.77
2019-03-03T00:58:54.454Z,13.63
2019-03-03T01:00:59.938Z,21.43
2019-03-03T01:03:05.360Z,19.33
2019-03-03T01:05:13.667Z,17.97
2019-03-03T01:07:19.196Z,16.90
2019-03-03T01:09:45.460Z,19.27
2019-03-03T01:11:53.670Z,18.00
2019-03-03T01:14:08.181Z,24.13
2019-03-03T01:16:16.338Z,15.67
2019-03-03T01:18:21.834Z,15.17
2019-03-03T01:20:27.299Z,20.40
2019-03-03T01:22:32.822Z,20.57
2019-03-03T01:24:40.974Z,14.07
2019-03-03T01:26:44.888Z,17.17
2019-03-03T01:28:48.774Z,22.70
2019-03-03T01:30:52.673Z,17.80
2019-03-03T01:32:56.539Z,17.50
2019-03-03T01:35:00.459Z,24.37
2019-03-03T01:37:04.320Z,18.40
2019-03-03T01:39:08.482Z,20.97
2019-03-03T01:41:12.360Z,14.40
2019-03-03T01:43:16.279Z,17.33
2019-03-03T01:45:20.176Z,25.10
2019-03-03T01:47:24.062Z,19.60
2019-03-03T01:49:27.941Z,13.57
2019-03-03T01:51:31.842Z,10.67
2019-03-03T01:53:35.682Z,14.23
2019-03-03T01:55:39.653Z,18.83
2019-03-03T01:57:43.586Z,13.40
2019-03-03T01:59:47.458Z,19.67
2019-03-03T02:01:51.361Z,10.93
2019-03-03T02:03:55.255Z,17.73
2019-03-03T02:05:59.139Z,14.30
2019-03-03T02:08:03.584Z,10.17
2019-03-03T02:10:09.629Z,8.83
2019-03-03T02:12:13.539Z,14.20
2019-03-03T02:14:17.583Z,14.17
2019-03-03T02:16:21.557Z,15.03
2019-03-03T02:18:25.448Z,12.10
2019-03-03T02:20:29.327Z,17.57
2019-03-03T02:22:33.263Z,11.20
2019-03-03T02:24:37.179Z,13.23
2019-03-03T02:26:41.040Z,9.67
2019-03-03T02:28:44.898Z,11.50
2019-03-03T02:30:48.920Z,12.13
2019-03-03T02:32:52.778Z,13.53
2019-03-03T02:34:56.831Z,11.47
2019-03-03T02:37:00.754Z,14.30
2019-03-03T02:39:07.550Z,14.90
2019-03-03T02:41:12.022Z,8.60
2019-03-03T02:43:15.916Z,6.07
2019-03-03T02:45:24.389Z,11.07
2019-03-03T02:47:28.896Z,12.77
2019-03-03T02:49:32.780Z,13.23
2019-03-03T02:51:36.625Z,12.63
2019-03-03T02:53:40.567Z,13.60
2019-03-03T02:55:44.433Z,18.13
2019-03-03T02:57:48.327Z,13.30
2019-03-03T02:59:52.236Z,10.50
2019-03-03T03:01:57.500Z,15.97
2019-03-03T03:04:01.388Z,12.40
2019-03-03T03:06:09.757Z,12.60
2019-03-03T03:08:18.241Z,15.17
2019-03-03T03:10:23.711Z,13.27
2019-03-03T03:12:45.567Z,13.30
2019-03-03T03:14:57.146Z,10.07
2019-03-03T03:17:14.602Z,10.20
2019-03-03T03:19:20.013Z,12.60
2019-03-03T03:21:41.737Z,14.30
2019-03-03T03:24:03.388Z,15.93
2019-03-03T03:26:14.588Z,19.20
2019-03-03T03:28:20.910Z,13.20
2019-03-03T03:30:38.814Z,16.87
2019-03-03T03:32:47.219Z,13.07
2019-03-03T03:34:52.651Z,14.17
2019-03-03T03:37:04.371Z,13.97
2019-03-03T03:39:15.832Z,14.13
2019-03-03T03:41:21.288Z,15.90
2019-03-03T03:43:43.157Z,11.20
2019-03-03T03:45:57.780Z,12.60
2019-03-03T03:48:06.025Z,14.93
2019-03-03T03:50:23.500Z,13.70
2019-03-03T03:52:28.976Z,12.30
2019-03-03T03:54:37.183Z,13.23
2019-03-03T03:56:54.312Z,11.93
2019-03-03T03:59:12.238Z,15.53
2019-03-03T04:01:17.678Z,11.50
2019-03-03T04:03:38.156Z,14.90
2019-03-03T04:05:59.757Z,11.90
2019-03-03T04:08:05.302Z,14.17
2019-03-03T04:10:13.637Z,12.97
2019-03-03T04:12:19.068Z,17.53
2019-03-03T04:14:33.435Z,15.10
2019-03-03T04:16:41.863Z,12.83
2019-03-03T04:18:47.302Z,17.57
2019-03-03T04:21:01.674Z,12.97
2019-03-03T04:23:09.964Z,14.27
2019-03-03T04:25:15.427Z,15.20
2019-03-03T04:27:29.725Z,11.27
2019-03-03T04:29:36.887Z,11.37
2019-03-03T04:32:01.967Z,11.73
2019-03-03T04:34:17.519Z,14.40
2019-03-03T04:36:25.714Z,13.13
2019-03-03T04:38:34.102Z,19.07
2019-03-03T04:40:43.063Z,13.83
2019-03-03T04:42:51.703Z,11.67
2019-03-03T04:44:57.156Z,10.93
2019-03-03T04:47:02.659Z,14.93
2019-03-03T04:49:19.987Z,10.13
2019-03-03T04:51:28.361Z,9.87
2019-03-03T04:53:40.870Z,9.77
2019-03-03T04:55:46.318Z,13.33
2019-03-03T04:58:09.603Z,11.70
2019-03-03T05:00:24.130Z,13.00
2019-03-03T05:02:30.589Z,18.83
2019-03-03T05:04:39.015Z,13.47
2019-03-03T05:06:53.747Z,11.43
2019-03-03T05:09:01.739Z,15.83
2019-03-03T05:11:07.173Z,12.53
2019-03-03T05:13:27.913Z,9.03
2019-03-03T05:15:42.338Z,7.97
2019-03-03T05:17:50.714Z,8.73
2019-03-03T05:19:56.286Z,8.07
2019-03-03T05:22:00.796Z,9.83
2019-03-03T05:24:04.660Z,10.37
2019-03-03T05:26:08.565Z,8.03
2019-03-03T05:28:12.438Z,11.10
2019-03-03T05:30:16.291Z,10.57
2019-03-03T05:32:20.182Z,6.47
2019-03-03T05:34:24.055Z,9.67
2019-03-03T05:36:27.953Z,15.10
2019-03-03T05:38:31.891Z,11.47
2019-03-03T05:40:35.965Z,14.07
2019-03-03T05:42:39.858Z,10.27
2019-03-03T05:44:43.757Z,14.87
2019-03-03T05:46:48.506Z,11.23
2019-03-03T05:48:52.900Z,13.07
2019-03-03T05:50:57.614Z,11.80
2019-03-03T05:53:01.529Z,11.57
2019-03-03T05:55:06.753Z,9.63
2019-03-03T05:57:10.653Z,10.60
2019-03-03T05:59:15.101Z,13.03
2019-03-03T06:01:20.626Z,9.77
2019-03-03T06:03:24.530Z,9.37
2019-03-03T06:05:28.425Z,12.17
2019-03-03T06:07:32.283Z,11.47
2019-03-03T06:09:36.189Z,10.83
2019-03-03T06:11:40.338Z,7.93
2019-03-03T06:13:48.830Z,11.27
2019-03-03T06:15:52.714Z,9.03
2019-03-03T06:17:56.599Z,11.10
2019-03-03T06:20:00.506Z,12.27
2019-03-03T06:22:04.388Z,13.37
2019-03-03T06:24:10.576Z,11.33
2019-03-03T06:26:14.621Z,8.53
2019-03-03T06:28:19.856Z,10.17
2019-03-03T06:30:25.367Z,13.73
2019-03-03T06:32:29.674Z,7.07
2019-03-03T06:34:33.546Z,9.63
2019-03-03T06:36:37.445Z,8.30
2019-03-03T06:38:41.660Z,10.53
2019-03-03T06:40:47.538Z,11.83
2019-03-03T06:42:51.441Z,10.10
2019-03-03T06:44:55.315Z,7.80
2019-03-03T06:47:00.650Z,11.47
2019-03-03T06:49:04.564Z,6.90
2019-03-03T06:51:09.753Z,12.13
2019-03-03T06:53:13.683Z,11.47
2019-03-03T06:55:17.529Z,13.07
2019-03-03T06:57:21.445Z,9.20
2019-03-03T06:59:25.344Z,16.07
2019-03-03T07:01:29.167Z,11.07
2019-03-03T07:03:33.120Z,11.87
2019-03-03T07:05:39.742Z,9.03
2019-03-03T07:07:43.619Z,13.07
2019-03-03T07:09:47.473Z,10.77
2019-03-03T07:11:51.346Z,11.33
2019-03-03T07:13:58.153Z,9.00
2019-03-03T07:16:05.023Z,12.00
2019-03-03T07:18:11.209Z,12.03
2019-03-03T07:20:15.599Z,10.00
2019-03-03T07:22:19.518Z,9.67
2019-03-03T07:24:23.442Z,13.80
2019-03-03T07:26:27.322Z,9.13
2019-03-03T07:28:31.185Z,10.90
2019-03-03T07:30:35.102Z,10.87
2019-03-03T07:32:40.535Z,10.67
2019-03-03T07:34:44.480Z,10.00
2019-03-03T07:36:48.499Z,7.90
2019-03-03T07:38:52.367Z,14.43
2019-03-03T07:40:56.337Z,6.80
2019-03-03T07:43:00.229Z,11.23
2019-03-03T07:45:07.230Z,8.87
2019-03-03T07:47:11.144Z,8.57
2019-03-03T07:49:15.024Z,9.70
2019-03-03T07:51:18.912Z,6.60
2019-03-03T07:53:22.831Z,6.83
2019-03-03T07:55:26.725Z,8.13
2019-03-03T07:57:30.601Z,7.63
2019-03-03T07:59:34.532Z,6.43
2019-03-03T08:01:38.390Z,7.97
2019-03-03T08:03:42.305Z,9.47
2019-03-03T08:05:46.157Z,7.73
2019-03-03T08:07:50.028Z,9.87
2019-03-03T08:09:53.902Z,7.83
2019-03-03T08:11:57.789Z,8.17
2019-03-03T08:14:01.685Z,7.60
2019-03-03T08:16:05.582Z,7.17
2019-03-03T08:18:09.429Z,8.37
2019-03-03T08:20:15.460Z,8.50
2019-03-03T08:22:19.329Z,9.07
2019-03-03T08:24:23.228Z,10.63
2019-03-03T08:26:27.170Z,9.43
2019-03-03T08:28:30.998Z,10.47
2019-03-03T08:30:34.867Z,9.33
2019-03-03T08:32:38.788Z,7.13
2019-03-03T08:34:42.646Z,8.87
2019-03-03T08:36:46.570Z,7.73
2019-03-03T08:38:50.480Z,10.63
2019-03-03T08:40:54.398Z,9.77
2019-03-03T08:43:11.405Z,9.03
2019-03-03T08:45:33.373Z,9.03
2019-03-03T08:47:38.850Z,9.03
2019-03-03T08:49:44.348Z,8.37
2019-03-03T08:51:49.855Z,9.87
2019-03-03T08:54:04.071Z,9.10
2019-03-03T08:56:15.394Z,10.37
2019-03-03T08:58:23.661Z,9.53
2019-03-03T09:00:29.161Z,7.80
2019-03-03T09:02:34.566Z,8.27
2019-03-03T09:04:40.082Z,7.70
2019-03-03T09:07:02.211Z,7.43
2019-03-03T09:09:17.983Z,9.90
2019-03-03T09:11:23.461Z,9.67
2019-03-03T09:13:31.597Z,8.80
2019-03-03T09:15:39.801Z,9.93
2019-03-03T09:17:47.979Z,9.53
2019-03-03T09:19:53.454Z,8.73
2019-03-03T09:21:58.929Z,8.47
2019-03-03T09:24:22.882Z,12.10
2019-03-03T09:26:44.864Z,11.10
2019-03-03T09:28:59.020Z,7.87
2019-03-03T09:31:07.614Z,7.93
2019-03-03T09:33:28.444Z,9.10
2019-03-03T09:35:36.930Z,10.67
2019-03-03T09:37:48.162Z,9.30
2019-03-03T09:39:53.619Z,11.03
2019-03-03T09:42:04.777Z,9.03
2019-03-03T09:44:19.312Z,9.00
2019-03-03T09:46:27.737Z,10.13
2019-03-03T09:48:49.849Z,9.37
2019-03-03T09:51:10.521Z,11.47
2019-03-03T09:53:18.916Z,12.23
2019-03-03T09:55:30.099Z,11.10
2019-03-03T09:57:35.518Z,11.00
2019-03-03T09:59:47.126Z,11.83
2019-03-03T10:01:52.604Z,10.40
2019-03-03T10:04:13.093Z,9.47
2019-03-03T10:06:18.529Z,9.73
2019-03-03T10:08:39.295Z,9.37
2019-03-03T10:10:44.825Z,10.47
2019-03-03T10:13:02.169Z,13.53
2019-03-03T10:15:13.379Z,12.53
2019-03-03T10:17:35.186Z,10.03
2019-03-03T10:19:55.385Z,9.57
2019-03-03T10:22:09.663Z,9.43
2019-03-03T10:24:15.120Z,8.90
2019-03-03T10:26:29.110Z,8.10
2019-03-03T10:28:50.778Z,7.77
2019-03-03T10:31:14.342Z,6.57
2019-03-03T10:33:34.848Z,5.50
2019-03-03T10:35:42.985Z,5.20
2019-03-03T10:38:04.697Z,6.50
2019-03-03T10:40:22.947Z,6.97
2019-03-03T10:42:34.537Z,7.70
2019-03-03T10:44:40.037Z,8.03
2019-03-03T10:46:45.478Z,6.77
2019-03-03T10:48:53.662Z,6.97
2019-03-03T10:51:02.090Z,6.30
2019-03-03T10:53:10.850Z,6.10
2019-03-03T10:55:22.309Z,5.90
2019-03-03T10:57:27.731Z,6.10
2019-03-03T10:59:45.490Z,4.37
2019-03-03T11:01:50.952Z,6.33
2019-03-03T11:04:05.788Z,6.47
2019-03-03T11:06:14.307Z,4.53
2019-03-03T11:08:37.800Z,6.17
2019-03-03T11:10:58.372Z,5.17
2019-03-03T11:13:15.821Z,5.47
2019-03-03T11:15:24.283Z,6.93
2019-03-03T11:17:32.680Z,11.73
2019-03-03T11:19:56.314Z,10.07
2019-03-03T11:22:10.854Z,7.20
2019-03-03T11:24:16.322Z,6.43
2019-03-03T11:26:21.767Z,6.73
2019-03-03T11:28:27.262Z,8.73
2019-03-03T11:30:39.475Z,4.57
2019-03-03T11:32:47.629Z,4.57
2019-03-03T11:35:11.127Z,6.47
2019-03-03T11:37:28.795Z,4.67
2019-03-03T11:39:50.377Z,7.77
2019-03-03T11:42:04.630Z,5.60
2019-03-03T11:44:13.153Z,5.50
2019-03-03T11:46:30.508Z,6.63
2019-03-03T11:48:44.949Z,8.07
2019-03-03T11:50:56.225Z,6.13
2019-03-03T11:53:17.006Z,3.87
2019-03-03T11:55:28.240Z,9.63
2019-03-03T11:57:33.874Z,6.27
2019-03-03T11:59:48.352Z,6.47
2019-03-03T12:02:03.249Z,8.83
2019-03-03T12:04:18.066Z,5.70
2019-03-03T12:06:23.657Z,6.53
2019-03-03T12:08:37.895Z,6.23
2019-03-03T12:10:43.366Z,4.47
2019-03-03T12:13:06.900Z,9.53
2019-03-03T12:15:21.759Z,5.40
2019-03-03T12:17:27.321Z,6.37
2019-03-03T12:19:32.805Z,8.10
2019-03-03T12:21:50.535Z,5.37
2019-03-03T12:24:05.275Z,6.20
2019-03-03T12:26:10.746Z,3.70
2019-03-03T12:28:22.207Z,4.60
2019-03-03T12:30:28.643Z,4.90
2019-03-03T12:32:46.490Z,5.93
2019-03-03T12:34:51.945Z,5.17
2019-03-03T12:37:03.202Z,4.03
2019-03-03T12:39:12.775Z,5.23
2019-03-03T12:41:24.339Z,5.17
2019-03-03T12:43:32.500Z,4.40
2019-03-03T12:45:46.932Z,5.30
2019-03-03T12:47:55.641Z,4.70
2019-03-03T12:50:17.349Z,6.40
2019-03-03T12:52:39.102Z,4.67
2019-03-03T12:54:53.460Z,3.83
2019-03-03T12:56:58.938Z,3.43
2019-03-03T12:59:04.433Z,3.97
2019-03-03T13:01:15.560Z,3.00
2019-03-03T13:03:35.609Z,3.07
2019-03-03T13:05:46.746Z,6.13
2019-03-03T13:08:07.384Z,3.73
2019-03-03T13:10:25.250Z,4.27
2019-03-03T13:12:47.213Z,3.77
2019-03-03T13:15:01.447Z,4.83
2019-03-03T13:17:10.685Z,2.80
2019-03-03T13:19:17.749Z,3.73
2019-03-03T13:21:26.696Z,3.23
2019-03-03T13:23:40.265Z,5.23
2019-03-03T13:25:54.718Z,3.43
2019-03-03T13:28:05.939Z,4.23
2019-03-03T13:30:29.844Z,4.23
2019-03-03T13:32:44.131Z,3.17
2019-03-03T13:34:49.629Z,3.20
2019-03-03T13:36:56.450Z,4.60
2019-03-03T13:39:10.945Z,3.97
2019-03-03T13:41:22.151Z,3.60
2019-03-03T13:43:26.077Z,5.50
2019-03-03T13:45:31.475Z,6.30
2019-03-03T13:47:35.387Z,6.20
2019-03-03T13:49:39.307Z,4.90
2019-03-03T13:51:43.174Z,5.57
2019-03-03T13:53:48.926Z,6.13
2019-03-03T13:55:55.983Z,4.57
2019-03-03T13:58:00.727Z,6.93
2019-03-03T14:00:07.180Z,5.40
2019-03-03T14:02:13.013Z,8.33
2019-03-03T14:04:17.464Z,6.93
2019-03-03T14:06:21.350Z,4.60
2019-03-03T14:08:27.090Z,7.17
2019-03-03T14:10:31.280Z,7.17
2019-03-03T14:12:38.400Z,6.30
2019-03-03T14:14:42.378Z,3.70
2019-03-03T14:16:46.267Z,4.97
2019-03-03T14:18:50.206Z,5.03
2019-03-03T14:20:54.087Z,5.97
2019-03-03T14:22:58.005Z,5.50
2019-03-03T14:25:01.875Z,7.20
2019-03-03T14:27:10.578Z,8.53
2019-03-03T14:29:13.207Z,5.47
2019-03-03T14:31:17.132Z,9.37
2019-03-03T14:33:21.043Z,7.50
2019-03-03T14:35:24.958Z,6.20
2019-03-03T14:37:28.830Z,7.13
2019-03-03T14:39:32.729Z,7.50
2019-03-03T14:41:36.595Z,7.20
2019-03-03T14:43:40.487Z,6.07
2019-03-03T14:45:44.857Z,6.90
2019-03-03T14:47:48.820Z,7.30
2019-03-03T14:49:52.881Z,6.50
2019-03-03T14:51:56.746Z,9.83
2019-03-03T14:54:00.846Z,8.67
2019-03-03T14:56:04.867Z,9.10
2019-03-03T14:58:08.762Z,10.20
2019-03-03T15:00:21.650Z,7.63
2019-03-03T15:02:25.792Z,7.80
2019-03-03T15:04:29.746Z,8.87
2019-03-03T15:06:33.640Z,6.60
2019-03-03T15:08:37.573Z,7.10
2019-03-03T15:10:41.441Z,8.63
2019-03-03T15:12:45.321Z,6.10
2019-03-03T15:14:49.336Z,10.07
2019-03-03T15:16:53.234Z,6.93
2019-03-03T15:18:58.548Z,8.07
2019-03-03T15:21:02.424Z,6.13
2019-03-03T15:23:06.379Z,5.90
2019-03-03T15:25:13.432Z,5.53
2019-03-03T15:27:18.880Z,4.33
2019-03-03T15:29:22.860Z,6.97
2019-03-03T15:31:26.694Z,5.70
2019-03-03T15:33:30.530Z,8.20
2019-03-03T15:35:34.423Z,6.87
2019-03-03T15:37:38.412Z,4.37
2019-03-03T15:39:42.289Z,4.93
2019-03-03T15:41:46.195Z,4.03
2019-03-03T15:43:50.169Z,4.23
2019-03-03T15:45:54.204Z,3.70
2019-03-03T15:47:58.194Z,3.83
2019-03-03T15:50:02.235Z,4.03
2019-03-03T15:52:06.249Z,4.80
2019-03-03T15:54:10.161Z,3.63
2019-03-03T15:56:14.058Z,4.93
2019-03-03T15:58:17.940Z,4.03
2019-03-03T16:00:30.500Z,3.43
2019-03-03T16:02:34.382Z,5.03
2019-03-03T16:04:38.258Z,4.00
2019-03-03T16:06:42.698Z,4.13
2019-03-03T16:08:46.560Z,5.40
2019-03-03T16:10:50.425Z,4.33
2019-03-03T16:12:54.341Z,6.00
2019-03-03T16:14:58.286Z,5.60
2019-03-03T16:17:02.097Z,5.90
2019-03-03T16:19:05.999Z,6.03
2019-03-03T16:21:09.844Z,3.97
2019-03-03T16:23:13.872Z,6.37
2019-03-03T16:25:24.626Z,5.53
2019-03-03T16:27:28.506Z,3.50
2019-03-03T16:29:32.401Z,7.10
2019-03-03T16:31:36.271Z,7.03
2019-03-03T16:33:40.129Z,8.13
2019-03-03T16:35:44.079Z,6.30
2019-03-03T16:37:47.910Z,5.07
2019-03-03T16:39:51.888Z,6.10
2019-03-03T16:41:55.767Z,9.40
2019-03-03T16:43:59.610Z,7.23
2019-03-03T16:46:03.621Z,8.00
2019-03-03T16:48:07.475Z,11.00
2019-03-03T16:50:13.577Z,8.17
2019-03-03T16:52:17.519Z,6.90
2019-03-03T16:54:21.391Z,9.67
2019-03-03T16:56:25.302Z,8.50
2019-03-03T16:58:29.183Z,7.37
2019-03-03T17:00:33.362Z,8.30
2019-03-03T17:02:37.323Z,5.43
2019-03-03T17:04:41.212Z,8.97
2019-03-03T17:06:45.079Z,8.77
2019-03-03T17:08:49.016Z,9.10
2019-03-03T17:10:52.947Z,11.07
2019-03-03T17:12:56.809Z,7.57
2019-03-03T17:15:00.690Z,10.07
2019-03-03T17:17:04.564Z,14.83
2019-03-03T17:19:08.450Z,10.80
2019-03-03T17:21:12.331Z,13.90
2019-03-03T17:23:16.214Z,10.43
2019-03-03T17:25:24.304Z,10.00
2019-03-03T17:27:28.236Z,10.40
2019-03-03T17:29:32.138Z,13.67
2019-03-03T17:31:36.026Z,12.33
2019-03-03T17:33:39.894Z,8.83
2019-03-03T17:35:43.789Z,10.90
2019-03-03T17:37:47.668Z,15.10
2019-03-03T17:39:51.542Z,15.70
2019-03-03T17:41:55.453Z,15.77
2019-03-03T17:44:00.464Z,16.10
2019-03-03T17:46:04.385Z,12.97
2019-03-03T17:48:08.717Z,14.00
2019-03-03T17:50:14.849Z,9.07
2019-03-03T17:52:18.723Z,11.10
2019-03-03T17:54:22.615Z,13.67
2019-03-03T17:56:26.537Z,16.10
2019-03-03T17:58:30.431Z,14.43
2019-03-03T18:00:44.877Z,9.57
2019-03-03T18:02:48.736Z,13.73
2019-03-03T18:04:52.641Z,10.00
2019-03-03T18:06:56.537Z,10.63
2019-03-03T18:09:00.410Z,10.90
2019-03-03T18:11:04.370Z,11.23
2019-03-03T18:13:08.255Z,9.53
2019-03-03T18:15:13.619Z,12.73
2019-03-03T18:17:17.721Z,19.07
2019-03-03T18:19:21.595Z,15.50
2019-03-03T18:21:25.512Z,16.90
2019-03-03T18:23:29.752Z,11.47
2019-03-03T18:25:33.749Z,20.03
2019-03-03T18:27:37.658Z,23.23
2019-03-03T18:29:41.646Z,16.70
2019-03-03T18:31:45.499Z,20.17
2019-03-03T18:33:49.422Z,23.63
2019-03-03T18:35:53.347Z,15.07
2019-03-03T18:37:57.245Z,24.97
2019-03-03T18:40:01.108Z,16.47
2019-03-03T18:42:05.123Z,17.20
2019-03-03T18:44:08.994Z,14.77
2019-03-03T18:46:12.922Z,17.33
2019-03-03T18:48:16.945Z,13.87
2019-03-03T18:50:26.221Z,22.20
2019-03-03T18:52:30.075Z,16.17
2019-03-03T18:54:34.062Z,18.90
2019-03-03T18:56:37.953Z,16.37
2019-03-03T18:58:41.897Z,17.90
2019-03-03T19:00:45.773Z,17.63
2019-03-03T19:02:49.762Z,16.57
2019-03-03T19:04:53.647Z,17.63
2019-03-03T19:06:57.589Z,14.73
2019-03-03T19:09:01.681Z,13.30
2019-03-03T19:11:05.788Z,14.37
2019-03-03T19:13:09.814Z,16.47
2019-03-03T19:15:16.273Z,11.80
2019-03-03T19:17:20.165Z,17.43
2019-03-03T19:19:24.056Z,19.07
2019-03-03T19:21:28.125Z,8.63
2019-03-03T19:23:32.007Z,15.57
2019-03-03T19:25:35.968Z,18.23
2019-03-03T19:27:40.901Z,15.60
2019-03-03T19:29:44.980Z,15.83
2019-03-03T19:31:48.897Z,15.10
2019-03-03T19:33:54.889Z,13.73
2019-03-03T19:35:58.990Z,16.67
2019-03-03T19:38:03.166Z,12.83
2019-03-03T19:40:10.432Z,12.23
2019-03-03T19:42:14.672Z,15.00
2019-03-03T19:44:18.811Z,15.60
2019-03-03T19:46:22.915Z,12.97
2019-03-03T19:48:26.980Z,14.37
2019-03-03T19:50:31.240Z,14.37
2019-03-03T19:52:35.544Z,14.67
2019-03-03T19:54:39.713Z,11.43
2019-03-03T19:56:44.011Z,15.87
2019-03-03T19:58:48.256Z,20.70
2019-03-03T20:00:52.468Z,19.03
2019-03-03T20:02:56.807Z,17.10
2019-03-03T20:05:01.083Z,13.17
2019-03-03T20:07:05.363Z,13.33
2019-03-03T20:09:09.579Z,13.77
2019-03-03T20:11:14.117Z,10.30
2019-03-03T20:13:18.285Z,15.67
2019-03-03T20:15:22.524Z,11.10
2019-03-03T20:17:26.659Z,12.83
2019-03-03T20:19:30.918Z,14.50
2019-03-03T20:21:34.961Z,11.77
2019-03-03T20:23:38.979Z,8.10
2019-03-03T20:25:43.006Z,11.50
2019-03-03T20:27:46.949Z,11.50
2019-03-03T20:29:50.968Z,11.57
2019-03-03T20:31:55.110Z,12.50
2019-03-03T20:33:59.174Z,11.37
2019-03-03T20:36:03.238Z,11.63
2019-03-03T20:38:07.139Z,13.83
2019-03-03T20:40:13.774Z,11.23
2019-03-03T20:42:17.842Z,17.37
2019-03-03T20:44:21.700Z,9.70
2019-03-03T20:46:25.597Z,10.17
2019-03-03T20:48:29.478Z,11.27
2019-03-03T20:50:33.378Z,12.80
2019-03-03T20:52:37.292Z,16.83
2019-03-03T20:54:41.201Z,11.83
2019-03-03T20:56:45.099Z,7.63
2019-03-03T20:58:48.960Z,9.50
2019-03-03T21:00:52.827Z,13.57
2019-03-03T21:02:57.136Z,13.40
2019-03-03T21:05:01.030Z,17.13
2019-03-03T21:07:06.184Z,8.90
2019-03-03T21:09:11.021Z,9.83
2019-03-03T21:11:14.894Z,8.17
2019-03-03T21:13:18.791Z,10.97
2019-03-03T21:15:23.153Z,13.77
2019-03-03T21:17:27.061Z,6.20
2019-03-03T21:19:30.960Z,12.20
2019-03-03T21:21:35.083Z,9.00
2019-03-03T21:23:38.967Z,15.40
2019-03-03T21:25:42.839Z,12.50
2019-03-03T21:27:46.886Z,9.93
2019-03-03T21:29:50.759Z,8.17
2019-03-03T21:31:54.669Z,9.33
2019-03-03T21:33:58.623Z,10.83
2019-03-03T21:36:02.559Z,7.03
2019-03-03T21:38:06.461Z,10.10
2019-03-03T21:40:12.855Z,11.83
2019-03-03T21:42:16.738Z,13.37
2019-03-03T21:44:20.668Z,9.53
2019-03-03T21:46:24.515Z,8.80
2019-03-03T21:48:28.448Z,6.77
2019-03-03T21:50:32.622Z,9.27
2019-03-03T21:52:36.462Z,12.83
2019-03-03T21:54:40.409Z,9.63
2019-03-03T21:56:44.348Z,8.77
2019-03-03T21:58:48.437Z,8.33
2019-03-03T22:00:52.385Z,14.57
2019-03-03T22:02:56.272Z,9.27
2019-03-03T22:05:00.918Z,11.67
2019-03-03T22:07:05.117Z,10.20
2019-03-03T22:09:10.001Z,7.87
2019-03-03T22:11:13.898Z,12.33
2019-03-03T22:13:17.776Z,10.93
2019-03-03T22:15:21.691Z,7.83
2019-03-03T22:17:25.578Z,10.57
2019-03-03T22:19:29.527Z,11.63
2019-03-03T22:21:33.428Z,9.67
2019-03-03T22:23:37.345Z,8.37
2019-03-03T22:25:42.298Z,8.93
2019-03-03T22:27:46.207Z,7.67
2019-03-03T22:29:50.069Z,9.20
2019-03-03T22:31:53.999Z,8.37
2019-03-03T22:33:57.889Z,8.00
2019-03-03T22:36:01.767Z,8.83
2019-03-03T22:38:05.690Z,10.17
2019-03-03T22:40:20.088Z,10.10
2019-03-03T22:42:24.407Z,7.97
2019-03-03T22:44:28.252Z,11.90
2019-03-03T22:46:32.176Z,10.00
2019-03-03T22:48:36.056Z,7.30
2019-03-03T22:50:39.950Z,12.23
2019-03-03T22:52:43.867Z,9.43
2019-03-03T22:54:47.729Z,7.60
2019-03-03T22:56:51.663Z,7.37
2019-03-03T22:58:55.518Z,9.27
2019-03-03T23:01:06.065Z,9.17
2019-03-03T23:03:09.949Z,9.37
2019-03-03T23:05:17.667Z,7.20
2019-03-03T23:07:24.784Z,7.67
2019-03-03T23:09:49.774Z,5.40
2019-03-03T23:11:59.424Z,7.90
2019-03-03T23:14:33.302Z,12.27
2019-03-03T23:17:10.647Z,8.40
2019-03-03T23:19:25.889Z,9.53
2019-03-03T23:21:44.414Z,8.47
2019-03-03T23:23:51.477Z,8.67
2019-03-03T23:25:55.350Z,9.63
2019-03-03T23:27:59.239Z,6.60
2019-03-03T23:30:03.194Z,9.50
2019-03-03T23:32:08.837Z,7.63
2019-03-03T23:34:12.785Z,8.90
2019-03-03T23:36:16.750Z,11.57
2019-03-03T23:38:20.627Z,9.30
2019-03-03T23:40:24.501Z,10.37
2019-03-03T23:42:29.430Z,8.30
2019-03-03T23:44:33.321Z,8.97
2019-03-03T23:46:37.226Z,8.03
2019-03-03T23:48:41.102Z,11.83
2019-03-03T23:50:45.019Z,5.60
2019-03-03T23:52:48.906Z,5.93
2019-03-03T23:54:53.085Z,8.67
2019-03-03T23:56:56.999Z,13.87
2019-03-03T23:59:00.868Z,7.83
